createdAt,value
2018-12-07T00:00:33.230Z,15.20
2018-12-07T00:03:02.003Z,13.73
2018-12-07T00:05:30.873Z,13.87
2018-12-07T00:07:59.758Z,13.90
2018-12-07T00:10:29.242Z,14.93
2018-12-07T00:21:32.422Z,14.50
2018-12-07T00:24:01.348Z,14.43
2018-12-07T00:26:30.526Z,13.83
2018-12-07T00:28:59.435Z,13.33
2018-12-07T00:31:28.765Z,14.60
2018-12-07T00:33:57.685Z,13.30
2018-12-07T00:36:26.457Z,14.37
2018-12-07T00:38:55.307Z,11.73
2018-12-07T00:41:24.211Z,13.27
2018-12-07T00:43:53.081Z,13.50
2018-12-07T00:46:21.987Z,13.30
2018-12-07T00:48:50.847Z,13.10
2018-12-07T00:51:19.789Z,13.03
2018-12-07T00:53:48.651Z,13.03
2018-12-07T00:56:17.594Z,12.00
2018-12-07T00:58:46.424Z,12.90
2018-12-07T01:01:15.338Z,11.97
2018-12-07T01:03:44.096Z,12.87
2018-12-07T01:06:12.996Z,12.27
2018-12-07T01:08:41.941Z,12.10
2018-12-07T01:11:10.835Z,12.57
2018-12-07T01:13:39.697Z,12.20
2018-12-07T01:16:08.541Z,11.60
2018-12-07T01:18:37.396Z,12.20
2018-12-07T01:21:06.269Z,11.67
2018-12-07T01:23:35.085Z,11.67
2018-12-07T01:26:03.840Z,11.97
2018-12-07T01:28:32.638Z,11.07
2018-12-07T01:31:01.518Z,10.13
2018-12-07T01:33:30.649Z,10.00
2018-12-07T01:35:59.469Z,12.07
2018-12-07T01:38:29.201Z,10.67
2018-12-07T01:40:58.084Z,10.90
2018-12-07T01:43:27.602Z,9.80
2018-12-07T01:45:56.396Z,9.30
2018-12-07T01:48:25.289Z,9.43
2018-12-07T01:50:54.137Z,9.37
2018-12-07T01:53:22.927Z,8.90
2018-12-07T01:55:51.850Z,8.37
2018-12-07T01:58:20.977Z,9.00
2018-12-07T02:00:49.813Z,9.47
2018-12-07T02:03:18.629Z,9.60
2018-12-07T02:05:47.421Z,10.30
2018-12-07T02:08:16.234Z,9.80
2018-12-07T02:10:45.080Z,10.80
2018-12-07T02:13:13.925Z,11.23
2018-12-07T02:15:42.717Z,10.37
2018-12-07T02:18:11.808Z,10.60
2018-12-07T02:20:40.831Z,11.43
2018-12-07T02:23:09.733Z,10.50
2018-12-07T02:25:38.585Z,10.07
2018-12-07T02:28:07.603Z,9.80
2018-12-07T02:30:36.515Z,10.47
2018-12-07T02:33:05.327Z,9.43
2018-12-07T02:35:34.242Z,9.20
2018-12-07T02:38:03.657Z,10.17
2018-12-07T02:40:32.508Z,10.33
2018-12-07T02:43:01.301Z,9.80
2018-12-07T02:45:30.092Z,9.33
2018-12-07T02:47:58.902Z,10.30
2018-12-07T02:50:27.829Z,9.27
2018-12-07T02:52:56.826Z,9.23
2018-12-07T02:55:25.636Z,9.90
2018-12-07T02:57:54.611Z,10.80
2018-12-07T03:00:23.482Z,9.23
2018-12-07T03:02:52.390Z,10.27
2018-12-07T03:05:21.967Z,10.27
2018-12-07T03:07:50.949Z,11.13
2018-12-07T03:10:20.273Z,11.30
2018-12-07T03:12:49.088Z,12.53
2018-12-07T03:15:17.915Z,12.73
2018-12-07T03:17:46.790Z,11.77
2018-12-07T03:20:15.550Z,14.40
2018-12-07T03:22:44.332Z,14.17
2018-12-07T03:25:13.144Z,13.37
2018-12-07T03:27:41.986Z,13.83
2018-12-07T03:30:10.816Z,14.47
2018-12-07T03:32:39.694Z,15.00
2018-12-07T03:35:08.653Z,15.57
2018-12-07T03:37:37.557Z,15.53
2018-12-07T03:40:06.454Z,17.00
2018-12-07T03:42:35.272Z,17.80
2018-12-07T03:45:04.995Z,17.57
2018-12-07T03:47:33.913Z,16.87
2018-12-07T03:50:02.720Z,16.23
2018-12-07T03:52:31.568Z,16.77
2018-12-07T03:55:00.454Z,15.70
2018-12-07T03:57:29.314Z,16.03
2018-12-07T03:59:58.158Z,18.67
2018-12-07T04:02:27.284Z,17.77
2018-12-07T04:04:56.121Z,17.00
2018-12-07T04:07:25.138Z,17.77
2018-12-07T04:09:54.011Z,17.57
2018-12-07T04:12:22.885Z,17.50
2018-12-07T04:14:51.880Z,16.70
2018-12-07T04:17:21.489Z,17.30
2018-12-07T04:19:50.334Z,17.37
2018-12-07T04:22:19.167Z,17.30
2018-12-07T04:24:48.070Z,18.30
2018-12-07T04:27:16.941Z,17.30
2018-12-07T04:29:45.775Z,18.33
2018-12-07T04:32:14.730Z,18.47
2018-12-07T04:34:43.632Z,19.93
2018-12-07T04:37:12.607Z,17.17
2018-12-07T04:39:41.622Z,16.90
2018-12-07T04:42:11.016Z,17.20
2018-12-07T04:44:39.920Z,15.00
2018-12-07T04:47:08.755Z,18.20
2018-12-07T04:49:37.646Z,16.70
2018-12-07T04:52:06.552Z,17.00
2018-12-07T04:54:35.430Z,15.00
2018-12-07T04:57:04.468Z,16.03
2018-12-07T04:59:33.312Z,16.27
2018-12-07T05:02:02.137Z,16.50
2018-12-07T05:04:30.865Z,16.73
2018-12-07T05:06:59.653Z,16.67
2018-12-07T05:09:28.449Z,16.23
2018-12-07T05:11:57.304Z,18.60
2018-12-07T05:14:26.175Z,18.80
2018-12-07T05:16:55.050Z,17.57
2018-12-07T05:19:23.981Z,18.07
2018-12-07T05:21:53.145Z,16.73
2018-12-07T05:24:22.146Z,19.13
2018-12-07T05:26:51.043Z,19.23
2018-12-07T05:29:20.039Z,18.40
2018-12-07T05:31:48.896Z,18.33
2018-12-07T05:34:17.796Z,17.10
2018-12-07T05:36:46.810Z,16.73
2018-12-07T05:39:15.682Z,19.87
2018-12-07T05:41:44.509Z,17.90
2018-12-07T05:44:13.330Z,18.73
2018-12-07T05:46:42.262Z,16.87
2018-12-07T05:49:11.225Z,17.67
2018-12-07T05:51:40.115Z,16.13
2018-12-07T05:54:08.950Z,15.03
2018-12-07T05:56:37.804Z,17.43
2018-12-07T05:59:06.696Z,16.30
2018-12-07T06:01:35.627Z,15.20
2018-12-07T06:04:04.403Z,14.50
2018-12-07T06:06:33.250Z,16.90
2018-12-07T06:09:02.124Z,15.83
2018-12-07T06:11:31.045Z,15.70
2018-12-07T06:14:00.054Z,17.90
2018-12-07T06:16:28.962Z,16.57
2018-12-07T06:18:57.804Z,13.73
2018-12-07T06:21:26.725Z,13.97
2018-12-07T06:23:55.506Z,15.60
2018-12-07T06:26:24.345Z,15.00
2018-12-07T06:28:53.146Z,13.30
2018-12-07T06:31:22.269Z,14.93
2018-12-07T06:33:51.526Z,14.10
2018-12-07T06:36:20.374Z,13.30
2018-12-07T06:38:49.290Z,15.00
2018-12-07T06:41:18.156Z,15.30
2018-12-07T06:43:47.105Z,13.17
2018-12-07T06:46:16.005Z,17.00
2018-12-07T06:48:55.060Z,15.13
2018-12-07T06:51:24.046Z,15.80
2018-12-07T06:53:53.016Z,15.83
2018-12-07T06:56:21.900Z,14.87
2018-12-07T06:58:51.505Z,15.10
2018-12-07T07:01:20.418Z,15.60
2018-12-07T07:03:50.050Z,16.10
2018-12-07T07:06:18.869Z,15.90
2018-12-07T07:08:47.921Z,14.60
2018-12-07T07:11:16.820Z,14.70
2018-12-07T07:13:45.689Z,15.00
2018-12-07T07:16:14.717Z,15.47
2018-12-07T07:18:43.514Z,15.30
2018-12-07T07:21:12.459Z,15.10
2018-12-07T07:23:42.396Z,14.83
2018-12-07T07:26:11.545Z,14.10
2018-12-07T07:28:40.445Z,14.57
2018-12-07T07:31:09.352Z,13.83
2018-12-07T07:33:38.214Z,14.27
2018-12-07T07:36:07.213Z,13.20
2018-12-07T07:38:36.128Z,12.17
2018-12-07T07:41:05.135Z,13.97
2018-12-07T07:43:33.998Z,13.00
2018-12-07T07:46:02.841Z,12.43
2018-12-07T07:48:31.677Z,11.97
2018-12-07T07:51:00.486Z,11.63
2018-12-07T07:53:29.335Z,11.30
2018-12-07T07:55:58.290Z,11.10
2018-12-07T07:58:27.138Z,10.80
2018-12-07T08:00:57.734Z,10.67
2018-12-07T08:03:26.768Z,10.97
2018-12-07T08:05:55.580Z,9.83
2018-12-07T08:08:24.404Z,9.20
2018-12-07T08:10:53.196Z,9.70
2018-12-07T08:13:22.106Z,10.03
2018-12-07T08:15:51.021Z,9.13
2018-12-07T08:18:19.812Z,8.10
2018-12-07T08:20:48.570Z,8.70
2018-12-07T08:23:17.454Z,8.57
2018-12-07T08:25:46.289Z,7.33
2018-12-07T08:28:15.505Z,8.20
2018-12-07T08:30:44.304Z,8.33
2018-12-07T08:33:13.129Z,6.50
2018-12-07T08:35:42.057Z,7.30
2018-12-07T08:38:11.009Z,7.03
2018-12-07T08:40:39.841Z,7.27
2018-12-07T08:43:08.619Z,5.90
2018-12-07T08:45:37.421Z,6.10
2018-12-07T08:48:06.192Z,6.27
2018-12-07T08:50:35.001Z,6.30
2018-12-07T08:53:03.792Z,5.90
2018-12-07T08:55:32.552Z,6.77
2018-12-07T08:58:01.623Z,5.50
2018-12-07T09:00:30.476Z,6.10
2018-12-07T09:02:59.398Z,5.47
2018-12-07T09:05:28.169Z,5.17
2018-12-07T09:07:56.925Z,5.77
2018-12-07T09:10:25.863Z,5.23
2018-12-07T09:12:54.767Z,5.80
2018-12-07T09:15:23.599Z,5.23
2018-12-07T09:17:52.344Z,4.70
2018-12-07T09:20:21.319Z,5.17
2018-12-07T09:22:50.446Z,4.60
2018-12-07T09:25:19.269Z,4.30
2018-12-07T09:27:48.260Z,4.37
2018-12-07T09:30:17.170Z,4.40
2018-12-07T09:32:46.266Z,4.70
2018-12-07T09:35:15.236Z,4.50
2018-12-07T09:37:44.032Z,3.87
2018-12-07T09:40:12.882Z,2.97
2018-12-07T09:42:41.721Z,4.43
2018-12-07T09:45:10.595Z,3.83
2018-12-07T09:47:39.536Z,3.20
2018-12-07T09:50:08.717Z,3.40
2018-12-07T09:52:37.599Z,3.27
2018-12-07T09:55:06.510Z,3.17
2018-12-07T09:57:35.346Z,3.60
2018-12-07T10:00:05.293Z,2.83
2018-12-07T10:02:34.181Z,3.00
2018-12-07T10:05:03.056Z,2.60
2018-12-07T10:07:31.961Z,2.60
2018-12-07T10:10:00.999Z,2.30
2018-12-07T10:12:30.049Z,2.60
2018-12-07T10:14:58.934Z,2.70
2018-12-07T10:17:27.803Z,2.20
2018-12-07T10:19:56.659Z,2.70
2018-12-07T10:22:25.613Z,2.37
2018-12-07T10:24:54.470Z,2.50
2018-12-07T10:27:23.490Z,2.20
2018-12-07T10:29:52.564Z,2.53
2018-12-07T10:32:21.546Z,2.17
2018-12-07T10:34:50.531Z,2.00
2018-12-07T10:37:19.980Z,2.23
2018-12-07T10:39:49.032Z,2.00
2018-12-07T10:42:18.633Z,1.90
2018-12-07T10:44:47.575Z,1.80
2018-12-07T10:47:16.347Z,2.07
2018-12-07T10:49:45.212Z,2.20
2018-12-07T10:52:14.032Z,2.03
2018-12-07T10:54:42.926Z,2.30
2018-12-07T10:57:11.832Z,2.00
2018-12-07T10:59:40.645Z,2.43
2018-12-07T11:02:14.873Z,2.20
2018-12-07T11:04:49.144Z,1.87
2018-12-07T11:07:23.481Z,2.70
2018-12-07T11:09:58.481Z,2.33
2018-12-07T11:12:32.857Z,2.57
2018-12-07T11:15:07.045Z,2.60
2018-12-07T11:17:41.343Z,2.30
2018-12-07T11:20:15.684Z,2.70
2018-12-07T11:22:50.036Z,2.67
2018-12-07T11:25:24.258Z,2.53
2018-12-07T11:27:58.550Z,2.80
2018-12-07T11:30:31.604Z,2.03
2018-12-07T11:33:05.773Z,1.97
2018-12-07T11:35:37.665Z,1.70
2018-12-07T11:38:06.501Z,2.00
2018-12-07T11:40:35.426Z,1.93
2018-12-07T11:43:04.322Z,1.60
2018-12-07T11:45:33.173Z,1.40
2018-12-07T11:48:02.106Z,1.53
2018-12-07T11:50:30.916Z,1.40
2018-12-07T11:52:59.878Z,1.90
2018-12-07T11:55:28.772Z,1.47
2018-12-07T11:57:57.529Z,1.60
2018-12-07T12:00:26.423Z,1.70
2018-12-07T12:02:55.269Z,1.63
2018-12-07T12:05:24.907Z,1.60
2018-12-07T12:07:53.809Z,1.57
2018-12-07T12:10:22.511Z,1.70
2018-12-07T12:12:51.347Z,1.80
2018-12-07T12:15:20.158Z,1.70
2018-12-07T12:17:48.909Z,3.13
2018-12-07T12:20:17.792Z,1.80
2018-12-07T12:22:46.728Z,1.83
2018-12-07T12:25:15.616Z,1.97
2018-12-07T12:27:44.441Z,2.40
2018-12-07T12:30:13.248Z,2.30
2018-12-07T12:32:42.057Z,2.87
2018-12-07T12:35:10.870Z,2.50
2018-12-07T12:37:39.743Z,2.60
2018-12-07T12:40:08.574Z,2.10
2018-12-07T12:42:37.369Z,2.30
2018-12-07T12:45:06.739Z,2.40
2018-12-07T12:47:35.594Z,2.10
2018-12-07T12:50:07.321Z,2.50
2018-12-07T12:52:36.211Z,2.33
2018-12-07T12:55:05.139Z,2.27
2018-12-07T12:57:33.978Z,2.33
2018-12-07T13:00:02.817Z,2.37
2018-12-07T13:02:31.585Z,2.17
2018-12-07T13:05:00.643Z,2.10
2018-12-07T13:07:29.438Z,2.33
2018-12-07T13:09:58.293Z,2.37
2018-12-07T13:12:27.258Z,2.33
2018-12-07T13:14:56.037Z,2.90
2018-12-07T13:17:25.332Z,2.83
2018-12-07T13:19:54.178Z,2.10
2018-12-07T13:22:23.009Z,2.40
2018-12-07T13:24:51.845Z,2.70
2018-12-07T13:27:20.711Z,2.97
2018-12-07T13:29:49.520Z,2.97
2018-12-07T13:32:18.405Z,2.77
2018-12-07T13:34:47.329Z,2.30
2018-12-07T13:37:16.149Z,3.13
2018-12-07T13:39:45.184Z,3.20
2018-12-07T13:42:14.572Z,3.30
2018-12-07T13:44:43.680Z,3.50
2018-12-07T13:47:13.496Z,3.30
2018-12-07T13:49:42.900Z,4.17
2018-12-07T13:52:12.111Z,5.87
2018-12-07T13:54:41.065Z,3.97
2018-12-07T13:57:10.056Z,3.67
2018-12-07T13:59:39.006Z,4.10
2018-12-07T14:02:07.926Z,4.90
2018-12-07T14:04:36.964Z,4.13
2018-12-07T14:07:06.165Z,4.50
2018-12-07T14:09:35.611Z,5.93
2018-12-07T14:12:04.580Z,4.90
2018-12-07T14:14:34.224Z,6.20
2018-12-07T14:17:03.203Z,6.00
2018-12-07T14:19:32.112Z,5.00
2018-12-07T14:22:00.876Z,5.60
2018-12-07T14:24:29.687Z,5.40
2018-12-07T14:26:59.733Z,8.70
2018-12-07T14:29:29.834Z,5.93
2018-12-07T14:31:59.264Z,5.13
2018-12-07T14:34:28.284Z,5.33
2018-12-07T14:36:57.398Z,5.50
2018-12-07T14:39:26.475Z,4.90
2018-12-07T14:41:55.409Z,5.53
2018-12-07T14:44:24.245Z,4.97
2018-12-07T14:46:53.380Z,5.00
2018-12-07T14:49:22.459Z,6.10
2018-12-07T14:51:51.472Z,6.37
2018-12-07T14:54:21.411Z,6.20
2018-12-07T14:56:50.280Z,7.40
2018-12-07T14:59:20.064Z,7.53
2018-12-07T15:01:49.363Z,7.97
2018-12-07T15:04:18.563Z,9.43
2018-12-07T15:06:47.353Z,8.40
2018-12-07T15:09:16.250Z,9.07
2018-12-07T15:11:45.358Z,8.40
2018-12-07T15:14:14.498Z,8.33
2018-12-07T15:16:43.585Z,8.97
2018-12-07T15:19:12.561Z,9.23
2018-12-07T15:21:41.462Z,10.03
2018-12-07T15:24:10.594Z,10.10
2018-12-07T15:26:39.642Z,10.60
2018-12-07T15:29:08.670Z,9.50
2018-12-07T15:31:37.708Z,9.47
2018-12-07T15:34:06.667Z,8.77
2018-12-07T15:36:35.589Z,8.27
2018-12-07T15:39:07.737Z,8.70
2018-12-07T15:41:36.729Z,9.10
2018-12-07T15:44:05.686Z,9.23
2018-12-07T15:46:34.856Z,8.37
2018-12-07T15:49:03.911Z,8.40
2018-12-07T15:51:32.809Z,8.70
2018-12-07T15:54:01.632Z,8.30
2018-12-07T15:56:30.544Z,9.37
2018-12-07T15:58:59.515Z,9.17
2018-12-07T16:01:28.497Z,10.13
2018-12-07T16:03:57.873Z,8.53
2018-12-07T16:06:26.980Z,8.90
2018-12-07T16:08:56.201Z,8.23
2018-12-07T16:11:25.416Z,8.90
2018-12-07T16:13:54.460Z,9.23
2018-12-07T16:16:23.601Z,8.10
2018-12-07T16:18:52.609Z,8.63
2018-12-07T16:21:21.512Z,8.00
2018-12-07T16:23:51.209Z,7.73
2018-12-07T16:26:20.368Z,8.03
2018-12-07T16:28:49.481Z,8.83
2018-12-07T16:31:18.445Z,7.40
2018-12-07T16:33:47.498Z,7.80
2018-12-07T16:36:16.570Z,7.40
2018-12-07T16:38:45.703Z,7.90
2018-12-07T16:41:14.844Z,6.50
2018-12-07T16:43:44.004Z,6.80
2018-12-07T16:46:13.134Z,8.10
2018-12-07T16:48:42.028Z,8.73
2018-12-07T16:51:11.641Z,8.63
2018-12-07T16:53:40.619Z,8.40
2018-12-07T16:56:09.810Z,8.90
2018-12-07T16:58:39.123Z,8.90
2018-12-07T17:01:08.071Z,7.90
2018-12-07T17:03:37.175Z,8.00
2018-12-07T17:06:06.048Z,7.27
2018-12-07T17:08:35.153Z,7.23
2018-12-07T17:11:04.115Z,7.80
2018-12-07T17:13:33.130Z,7.83
2018-12-07T17:16:02.279Z,7.20
2018-12-07T17:18:31.434Z,8.17
2018-12-07T17:21:00.588Z,7.03
2018-12-07T17:23:29.552Z,7.27
2018-12-07T17:25:58.455Z,7.87
2018-12-07T17:28:27.381Z,7.60
2018-12-07T17:30:56.441Z,7.60
2018-12-07T17:33:25.448Z,7.30
2018-12-07T17:35:54.923Z,5.87
2018-12-07T17:38:23.740Z,6.10
2018-12-07T17:40:52.677Z,7.13
2018-12-07T17:43:21.653Z,7.30
2018-12-07T17:45:50.789Z,6.20
2018-12-07T17:48:19.589Z,6.60
2018-12-07T17:50:48.622Z,6.97
2018-12-07T17:53:17.599Z,8.30
2018-12-07T17:55:46.641Z,8.80
2018-12-07T17:58:15.785Z,8.60
2018-12-07T18:00:44.873Z,9.63
2018-12-07T18:03:13.701Z,9.60
2018-12-07T18:05:42.587Z,10.83
2018-12-07T18:08:11.819Z,10.10
2018-12-07T18:10:40.826Z,10.70
2018-12-07T18:13:09.766Z,9.17
2018-12-07T18:15:38.688Z,9.67
2018-12-07T18:18:07.694Z,10.60
2018-12-07T18:20:36.881Z,11.90
2018-12-07T18:23:05.975Z,10.90
2018-12-07T18:25:35.234Z,11.40
2018-12-07T18:28:04.222Z,11.20
2018-12-07T18:30:33.142Z,10.50
2018-12-07T18:33:01.984Z,11.87
2018-12-07T18:35:31.069Z,10.80
2018-12-07T18:37:59.907Z,11.70
2018-12-07T18:40:29.041Z,12.37
2018-12-07T18:42:58.050Z,11.07
2018-12-07T18:45:27.137Z,12.53
2018-12-07T18:47:56.100Z,13.30
2018-12-07T18:50:25.436Z,11.00
2018-12-07T18:52:54.842Z,11.60
2018-12-07T18:55:24.645Z,10.40
2018-12-07T18:57:53.638Z,11.70
2018-12-07T19:00:23.157Z,10.63
2018-12-07T19:02:52.255Z,11.83
2018-12-07T19:05:21.331Z,11.60
2018-12-07T19:07:50.437Z,10.67
2018-12-07T19:10:19.453Z,11.30
2018-12-07T19:12:48.481Z,11.90
2018-12-07T19:15:17.404Z,10.70
2018-12-07T19:17:46.418Z,10.00
2018-12-07T19:20:15.388Z,11.00
2018-12-07T19:22:44.506Z,11.03
2018-12-07T19:25:13.760Z,10.53
2018-12-07T19:27:43.007Z,10.00
2018-12-07T19:30:14.800Z,10.90
2018-12-07T19:32:43.007Z,11.30
2018-12-07T19:35:12.295Z,11.07
2018-12-07T19:37:42.132Z,10.63
2018-12-07T19:40:11.120Z,11.63
2018-12-07T19:42:39.998Z,9.63
2018-12-07T19:45:09.654Z,10.93
2018-12-07T19:47:38.553Z,11.13
2018-12-07T19:50:08.227Z,11.63
2018-12-07T19:52:37.210Z,11.20
2018-12-07T19:55:06.450Z,12.00
2018-12-07T19:57:35.390Z,11.93
2018-12-07T20:00:06.811Z,10.83
2018-12-07T20:02:35.834Z,12.17
2018-12-07T20:05:05.221Z,10.73
2018-12-07T20:07:34.134Z,11.57
2018-12-07T20:10:03.202Z,11.27
2018-12-07T20:12:32.876Z,10.00
2018-12-07T20:15:02.158Z,10.07
2018-12-07T20:17:31.416Z,8.60
2018-12-07T20:20:00.380Z,9.33
2018-12-07T20:22:29.370Z,8.80
2018-12-07T20:24:58.377Z,7.07
2018-12-07T20:27:27.226Z,8.30
2018-12-07T20:29:56.300Z,9.53
2018-12-07T20:32:25.292Z,7.90
2018-12-07T20:34:54.165Z,6.83
2018-12-07T20:37:23.219Z,7.37
2018-12-07T20:39:52.297Z,7.10
2018-12-07T20:42:21.307Z,6.87
2018-12-07T20:44:50.215Z,6.90
2018-12-07T20:47:24.654Z,6.20
2018-12-07T20:49:49.899Z,6.07
2018-12-07T20:52:19.637Z,5.70
2018-12-07T20:54:48.536Z,5.60
2018-12-07T20:57:17.961Z,5.43
2018-12-07T20:59:47.012Z,5.50
2018-12-07T21:02:15.969Z,4.97
2018-12-07T21:04:45.210Z,5.57
2018-12-07T21:07:40.095Z,5.70
2018-12-07T21:11:25.228Z,4.30
2018-12-07T21:14:06.096Z,4.50
2018-12-07T21:17:41.471Z,4.03
2018-12-07T21:20:15.307Z,4.17
2018-12-07T21:22:44.167Z,4.43
2018-12-07T21:25:14.261Z,3.90
2018-12-07T21:27:43.324Z,4.03
2018-12-07T21:31:19.981Z,4.20
2018-12-07T21:34:56.751Z,5.30
2018-12-07T21:37:26.021Z,3.93
2018-12-07T21:40:01.387Z,4.13
2018-12-07T21:42:30.268Z,4.37
2018-12-07T21:44:59.177Z,3.77
2018-12-07T21:47:48.873Z,4.40
2018-12-07T21:50:17.870Z,3.93
2018-12-07T21:52:46.872Z,3.60
2018-12-07T21:55:16.179Z,4.07
2018-12-07T21:57:45.330Z,3.13
2018-12-07T22:00:14.491Z,3.40
2018-12-07T22:02:43.392Z,3.30
2018-12-07T22:05:12.249Z,3.57
2018-12-07T22:07:41.354Z,3.57
2018-12-07T22:10:10.314Z,3.77
2018-12-07T22:12:39.485Z,3.23
2018-12-07T22:15:08.986Z,3.60
2018-12-07T22:17:37.965Z,4.07
2018-12-07T22:20:07.266Z,3.60
2018-12-07T22:22:36.255Z,4.00
2018-12-07T22:25:05.400Z,4.40
2018-12-07T22:27:34.351Z,4.17
2018-12-07T22:30:03.760Z,3.90
2018-12-07T22:32:32.722Z,3.60
2018-12-07T22:35:01.710Z,3.77
2018-12-07T22:37:30.802Z,3.80
2018-12-07T22:40:00.086Z,3.40
2018-12-07T22:42:29.324Z,3.20
2018-12-07T22:44:58.572Z,2.77
2018-12-07T22:47:27.550Z,2.60
2018-12-07T22:49:56.377Z,2.10
2018-12-07T22:52:25.223Z,2.20
2018-12-07T22:54:54.048Z,2.40
2018-12-07T22:57:22.820Z,1.90
2018-12-07T22:59:52.482Z,1.87
2018-12-07T23:02:21.397Z,1.70
2018-12-07T23:04:50.234Z,1.83
2018-12-07T23:07:19.037Z,1.70
2018-12-07T23:09:47.822Z,1.60
2018-12-07T23:12:16.629Z,1.60
2018-12-07T23:14:45.475Z,1.77
2018-12-07T23:17:14.359Z,1.73
2018-12-07T23:19:43.408Z,1.30
2018-12-07T23:22:12.220Z,1.57
2018-12-07T23:24:41.272Z,1.63
2018-12-07T23:27:10.613Z,1.47
2018-12-07T23:29:39.490Z,1.50
2018-12-07T23:32:08.288Z,1.37
2018-12-07T23:34:37.479Z,1.60
2018-12-07T23:37:06.362Z,1.60
2018-12-07T23:39:35.180Z,1.73
2018-12-07T23:42:04.040Z,1.67
2018-12-07T23:44:32.881Z,2.10
2018-12-07T23:47:01.679Z,1.60
2018-12-07T23:49:30.401Z,1.60
2018-12-07T23:51:59.246Z,1.57
2018-12-07T23:54:28.004Z,1.33
2018-12-07T23:56:56.833Z,1.40
2018-12-07T23:59:26.528Z,1.20
